createdAt,value
2022-12-17T00:01:55.175Z,13.57
2022-12-17T00:04:42.281Z,15.03
2022-12-17T00:07:47.425Z,13.13
2022-12-17T00:10:34.424Z,13.27
2022-12-17T00:13:19.820Z,14.03
2022-12-17T00:16:10.063Z,13.70
2022-12-17T00:18:55.440Z,12.40
2022-12-17T00:21:42.022Z,12.97
2022-12-17T00:24:27.173Z,12.60
2022-12-17T00:27:14.065Z,13.43
2022-12-17T00:29:59.367Z,14.23
2022-12-17T00:32:44.869Z,12.87
2022-12-17T00:35:30.169Z,11.60
2022-12-17T00:38:15.689Z,11.40
2022-12-17T00:41:00.971Z,11.13
2022-12-17T00:43:47.555Z,10.70
2022-12-17T00:46:33.405Z,10.80
2022-12-17T00:49:18.707Z,11.10
2022-12-17T00:52:03.953Z,10.63
2022-12-17T00:54:49.518Z,11.03
2022-12-17T00:57:35.169Z,10.17
2022-12-17T01:00:22.974Z,10.83
2022-12-17T01:03:08.535Z,11.07
2022-12-17T01:05:53.877Z,10.13
2022-12-17T01:08:39.648Z,10.27
2022-12-17T01:11:26.633Z,9.70
2022-12-17T01:14:12.837Z,10.03
2022-12-17T01:16:59.645Z,10.10
2022-12-17T01:19:44.982Z,11.17
2022-12-17T01:22:30.251Z,11.30
2022-12-17T01:25:15.830Z,11.03
2022-12-17T01:28:01.093Z,11.97
2022-12-17T01:30:47.131Z,11.50
2022-12-17T01:33:34.927Z,11.63
2022-12-17T01:36:20.382Z,11.70
2022-12-17T01:39:06.205Z,10.87
2022-12-17T01:41:51.987Z,11.13
2022-12-17T01:45:07.964Z,11.57
2022-12-17T01:48:00.890Z,11.57
2022-12-17T01:50:51.254Z,10.83
2022-12-17T01:53:40.230Z,10.33
2022-12-17T01:56:26.601Z,9.33
2022-12-17T01:59:12.462Z,10.77
2022-12-17T02:01:58.651Z,10.37
2022-12-17T02:04:45.166Z,9.93
2022-12-17T02:07:48.009Z,10.40
2022-12-17T02:10:42.153Z,9.97
2022-12-17T02:13:33.421Z,10.20
2022-12-17T02:16:26.482Z,11.27
2022-12-17T02:19:18.520Z,10.23
2022-12-17T02:22:08.056Z,10.27
2022-12-17T02:25:02.490Z,10.63
2022-12-17T02:27:49.859Z,10.73
2022-12-17T02:30:35.716Z,9.57
2022-12-17T02:33:22.541Z,10.53
2022-12-17T02:36:11.991Z,10.57
2022-12-17T02:38:57.758Z,10.20
2022-12-17T02:41:47.985Z,9.63
2022-12-17T02:44:39.033Z,10.60
2022-12-17T02:47:27.813Z,9.67
2022-12-17T02:50:14.512Z,9.60
2022-12-17T02:53:04.879Z,10.27
2022-12-17T02:55:50.606Z,10.27
2022-12-17T02:58:36.516Z,10.07
2022-12-17T03:01:23.810Z,10.17
2022-12-17T03:04:09.473Z,10.20
2022-12-17T03:06:55.045Z,10.43
2022-12-17T03:09:40.775Z,9.70
2022-12-17T03:12:27.181Z,9.73
2022-12-17T03:15:12.487Z,10.13
2022-12-17T03:17:59.651Z,9.87
2022-12-17T03:20:45.265Z,10.27
2022-12-17T03:23:30.858Z,10.40
2022-12-17T03:26:17.991Z,10.60
2022-12-17T03:29:03.705Z,11.47
2022-12-17T03:31:49.389Z,10.53
2022-12-17T03:34:36.150Z,10.00
2022-12-17T03:37:21.784Z,10.43
2022-12-17T03:40:07.303Z,10.80
2022-12-17T03:42:52.944Z,10.90
2022-12-17T03:45:38.327Z,11.63
2022-12-17T03:48:25.355Z,11.03
2022-12-17T03:51:12.618Z,11.10
2022-12-17T03:53:58.758Z,10.30
2022-12-17T03:56:44.319Z,10.30
2022-12-17T03:59:30.072Z,10.10
2022-12-17T04:02:16.259Z,10.20
2022-12-17T04:05:02.026Z,10.33
2022-12-17T04:07:49.175Z,10.30
2022-12-17T04:10:34.536Z,9.97
2022-12-17T04:13:20.169Z,11.17
2022-12-17T04:16:05.708Z,14.00
2022-12-17T04:18:51.313Z,12.10
2022-12-17T04:21:36.855Z,11.17
2022-12-17T04:24:23.985Z,10.93
2022-12-17T04:27:09.589Z,10.23
2022-12-17T04:29:55.421Z,10.77
2022-12-17T04:32:40.784Z,10.20
2022-12-17T04:35:26.762Z,9.97
2022-12-17T04:38:12.373Z,11.10
2022-12-17T04:40:59.265Z,10.90
2022-12-17T04:43:44.544Z,10.80
2022-12-17T04:46:30.242Z,12.30
2022-12-17T04:49:15.615Z,11.97
2022-12-17T04:52:00.978Z,11.43
2022-12-17T04:54:46.581Z,12.03
2022-12-17T04:57:33.509Z,11.43
2022-12-17T05:00:19.123Z,11.90
2022-12-17T05:03:06.301Z,11.30
2022-12-17T05:06:08.689Z,11.93
2022-12-17T05:08:54.583Z,11.63
2022-12-17T05:11:40.393Z,11.30
2022-12-17T05:14:27.210Z,11.13
2022-12-17T05:17:13.073Z,11.40
2022-12-17T05:19:58.664Z,11.47
2022-12-17T05:22:44.244Z,11.60
2022-12-17T05:25:29.944Z,11.63
2022-12-17T05:28:15.454Z,11.77
2022-12-17T05:31:09.443Z,12.17
2022-12-17T05:33:54.740Z,12.63
2022-12-17T05:36:40.401Z,15.93
2022-12-17T05:39:25.568Z,16.20
2022-12-17T05:42:11.129Z,13.90
2022-12-17T05:44:56.867Z,13.83
2022-12-17T05:47:43.823Z,11.77
2022-12-17T05:50:29.382Z,11.77
2022-12-17T05:53:20.529Z,11.93
2022-12-17T05:56:07.968Z,13.17
2022-12-17T05:58:53.433Z,13.43
2022-12-17T06:01:39.114Z,13.77
2022-12-17T06:04:27.939Z,15.57
2022-12-17T06:07:13.569Z,15.00
2022-12-17T06:09:59.396Z,15.17
2022-12-17T06:12:44.685Z,15.93
2022-12-17T06:15:30.348Z,16.97
2022-12-17T06:18:17.174Z,17.43
2022-12-17T06:21:04.805Z,16.13
2022-12-17T06:23:50.270Z,16.63
2022-12-17T06:26:35.776Z,16.97
2022-12-17T06:29:21.346Z,15.83
2022-12-17T06:32:06.911Z,16.20
2022-12-17T06:34:52.439Z,18.80
2022-12-17T06:37:39.366Z,16.17
2022-12-17T06:40:25.838Z,15.83
2022-12-17T06:43:12.532Z,18.00
2022-12-17T06:45:58.326Z,16.17
2022-12-17T06:48:43.900Z,16.80
2022-12-17T06:51:29.533Z,16.33
2022-12-17T06:54:16.392Z,18.17
2022-12-17T06:57:01.896Z,16.60
2022-12-17T06:59:47.435Z,16.87
2022-12-17T07:02:33.068Z,17.60
2022-12-17T07:05:18.852Z,16.43
2022-12-17T07:08:04.465Z,17.07
2022-12-17T07:10:51.460Z,16.30
2022-12-17T07:13:38.250Z,18.47
2022-12-17T07:16:24.188Z,19.63
2022-12-17T07:19:09.442Z,18.33
2022-12-17T07:21:55.126Z,16.57
2022-12-17T07:24:40.543Z,18.13
2022-12-17T07:27:27.654Z,18.07
2022-12-17T07:30:13.293Z,16.53
2022-12-17T07:32:58.540Z,16.53
2022-12-17T07:35:43.845Z,16.93
2022-12-17T07:38:29.787Z,16.23
2022-12-17T07:41:16.798Z,18.27
2022-12-17T07:44:03.533Z,17.33
2022-12-17T07:46:49.215Z,17.60
2022-12-17T07:49:34.714Z,16.23
2022-12-17T07:52:20.317Z,18.03
2022-12-17T07:55:05.882Z,16.63
2022-12-17T07:57:51.879Z,17.10
2022-12-17T08:00:39.010Z,17.90
2022-12-17T08:03:24.656Z,15.57
2022-12-17T08:06:10.141Z,15.43
2022-12-17T08:08:55.599Z,15.10
2022-12-17T08:11:41.239Z,15.37
2022-12-17T08:14:26.841Z,16.80
2022-12-17T08:17:13.754Z,17.07
2022-12-17T08:20:00.619Z,16.73
2022-12-17T08:22:46.171Z,15.23
2022-12-17T08:25:31.720Z,15.27
2022-12-17T08:28:50.169Z,15.53
2022-12-17T08:31:24.901Z,18.40
2022-12-17T08:34:11.519Z,17.77
2022-12-17T08:36:57.250Z,14.90
2022-12-17T08:39:42.954Z,16.87
2022-12-17T08:42:28.496Z,15.93
2022-12-17T08:45:14.119Z,14.60
2022-12-17T08:48:03.872Z,14.40
2022-12-17T08:50:51.217Z,14.40
2022-12-17T08:53:37.338Z,14.27
2022-12-17T08:56:24.021Z,14.60
2022-12-17T08:59:09.342Z,14.50
2022-12-17T09:01:55.043Z,15.00
2022-12-17T09:04:40.428Z,14.73
2022-12-17T09:07:37.917Z,17.57
2022-12-17T09:10:24.365Z,16.23
2022-12-17T09:13:09.926Z,14.30
2022-12-17T09:15:55.404Z,16.67
2022-12-17T09:18:41.502Z,15.07
2022-12-17T09:21:27.486Z,15.40
2022-12-17T09:24:14.478Z,16.07
2022-12-17T09:26:59.832Z,16.27
2022-12-17T09:29:45.237Z,17.27
2022-12-17T09:32:30.505Z,17.27
2022-12-17T09:35:16.206Z,16.47
2022-12-17T09:38:01.773Z,14.73
2022-12-17T09:40:49.183Z,14.73
2022-12-17T09:43:45.536Z,15.07
2022-12-17T09:46:39.234Z,15.10
2022-12-17T09:49:33.281Z,15.97
2022-12-17T09:52:19.055Z,14.30
2022-12-17T09:55:08.530Z,15.20
2022-12-17T09:57:56.367Z,15.50
2022-12-17T10:00:44.469Z,15.33
2022-12-17T10:03:33.161Z,15.63
2022-12-17T10:06:23.518Z,17.23
2022-12-17T10:09:14.525Z,17.50
2022-12-17T10:12:00.208Z,16.50
2022-12-17T10:14:47.247Z,16.67
2022-12-17T10:17:34.598Z,15.77
2022-12-17T10:20:20.332Z,17.57
2022-12-17T10:23:08.618Z,16.40
2022-12-17T10:25:54.666Z,15.70
2022-12-17T10:28:42.767Z,18.97
2022-12-17T10:31:36.141Z,15.40
2022-12-17T10:34:25.381Z,16.30
2022-12-17T10:37:11.861Z,17.80
2022-12-17T10:39:59.881Z,31.33
2022-12-17T10:42:47.249Z,23.43
2022-12-17T10:45:44.780Z,17.07
2022-12-17T10:48:42.847Z,17.67
2022-12-17T10:51:39.013Z,16.47
2022-12-17T10:54:36.356Z,15.57
2022-12-17T10:57:21.941Z,15.30
2022-12-17T11:00:09.700Z,17.30
2022-12-17T11:02:56.268Z,16.37
2022-12-17T11:05:46.680Z,16.37
2022-12-17T11:08:33.923Z,16.20
2022-12-17T11:11:23.096Z,15.27
2022-12-17T11:14:10.737Z,17.53
2022-12-17T11:17:03.316Z,17.30
2022-12-17T11:19:56.246Z,16.07
2022-12-17T11:22:49.877Z,16.67
2022-12-17T11:25:57.319Z,18.33
2022-12-17T11:28:44.962Z,18.10
2022-12-17T11:31:48.895Z,16.97
2022-12-17T11:34:45.153Z,17.30
2022-12-17T11:37:47.268Z,17.13
2022-12-17T11:40:44.639Z,17.47
2022-12-17T11:43:37.440Z,17.27
2022-12-17T11:46:35.738Z,18.67
2022-12-17T11:49:29.933Z,17.23
2022-12-17T11:52:20.480Z,18.60
2022-12-17T11:55:16.000Z,17.80
2022-12-17T11:58:09.517Z,17.60
2022-12-17T12:01:03.375Z,17.00
2022-12-17T12:03:57.607Z,17.27
2022-12-17T12:06:52.921Z,18.20
2022-12-17T12:09:46.898Z,16.50
2022-12-17T12:12:45.251Z,18.57
2022-12-17T12:15:43.571Z,17.20
2022-12-17T12:18:37.022Z,18.13
2022-12-17T12:21:40.187Z,18.10
2022-12-17T12:24:42.898Z,17.17
2022-12-17T12:27:42.448Z,19.83
2022-12-17T12:30:34.329Z,18.00
2022-12-17T12:33:36.700Z,21.47
2022-12-17T12:36:24.995Z,20.47
2022-12-17T12:39:13.511Z,19.50
2022-12-17T12:42:07.110Z,19.97
2022-12-17T12:45:02.937Z,19.73
2022-12-17T12:47:58.928Z,19.87
2022-12-17T12:50:51.580Z,19.97
2022-12-17T12:53:39.048Z,19.73
2022-12-17T12:56:42.974Z,19.70
2022-12-17T12:59:30.916Z,21.20
2022-12-17T13:02:16.645Z,20.03
2022-12-17T13:05:03.409Z,21.70
2022-12-17T13:07:30.813Z,19.90
2022-12-17T13:09:59.087Z,20.80
2022-12-17T13:12:33.076Z,20.27
2022-12-17T13:15:14.759Z,19.00
2022-12-17T13:17:46.117Z,20.37
2022-12-17T13:20:28.254Z,20.60
2022-12-17T13:23:14.737Z,21.00
2022-12-17T13:25:42.094Z,21.17
2022-12-17T13:28:27.705Z,20.97
2022-12-17T13:31:04.738Z,20.43
2022-12-17T13:33:39.327Z,22.00
2022-12-17T13:36:15.508Z,23.33
2022-12-17T13:38:46.908Z,22.70
2022-12-17T13:41:16.619Z,22.10
2022-12-17T13:43:46.618Z,23.07
2022-12-17T13:46:24.493Z,24.37
2022-12-17T13:48:56.455Z,23.43
2022-12-17T13:51:27.641Z,24.60
2022-12-17T13:53:57.760Z,25.03
2022-12-17T13:56:27.091Z,25.33
2022-12-17T13:58:56.276Z,24.93
2022-12-17T14:01:26.114Z,27.33
2022-12-17T14:04:06.337Z,24.87
2022-12-17T14:06:37.732Z,24.67
2022-12-17T14:09:05.969Z,25.53
2022-12-17T14:11:52.128Z,25.53
2022-12-17T14:14:27.247Z,25.10
2022-12-17T14:16:55.013Z,27.20
2022-12-17T14:19:22.646Z,25.97
2022-12-17T14:21:51.609Z,26.00
2022-12-17T14:24:23.093Z,25.67
2022-12-17T14:26:50.905Z,26.93
2022-12-17T14:29:22.839Z,25.17
2022-12-17T14:31:53.881Z,26.27
2022-12-17T14:34:20.905Z,28.57
2022-12-17T14:36:56.489Z,27.00
2022-12-17T14:39:27.133Z,26.60
2022-12-17T14:42:14.248Z,27.83
2022-12-17T14:44:50.252Z,28.57
2022-12-17T14:47:20.438Z,27.67
2022-12-17T14:50:04.370Z,26.93
2022-12-17T14:52:42.216Z,26.07
2022-12-17T14:55:31.334Z,27.20
2022-12-17T14:58:22.625Z,27.20
2022-12-17T15:00:53.257Z,27.17
2022-12-17T15:03:24.513Z,28.90
2022-12-17T15:05:58.262Z,26.33
2022-12-17T15:08:29.860Z,27.73
2022-12-17T15:10:57.214Z,26.73
2022-12-17T15:13:24.076Z,26.00
2022-12-17T15:15:50.986Z,27.00
2022-12-17T15:18:17.882Z,28.00
2022-12-17T15:20:44.882Z,25.83
2022-12-17T15:23:17.033Z,26.90
2022-12-17T15:25:47.232Z,24.93
2022-12-17T15:28:15.249Z,24.23
2022-12-17T15:30:42.220Z,25.00
2022-12-17T15:33:10.485Z,25.23
2022-12-17T15:35:37.691Z,24.63
2022-12-17T15:38:05.746Z,25.07
2022-12-17T15:40:32.988Z,22.90
2022-12-17T15:43:13.603Z,24.17
2022-12-17T15:45:41.985Z,24.37
2022-12-17T15:48:09.326Z,25.73
2022-12-17T15:50:36.455Z,24.93
2022-12-17T15:53:03.468Z,27.57
2022-12-17T15:55:30.693Z,29.57
2022-12-17T15:57:57.631Z,24.47
2022-12-17T16:00:25.913Z,25.63
2022-12-17T16:02:53.036Z,24.63
2022-12-17T16:05:22.142Z,27.67
2022-12-17T16:07:49.193Z,27.67
2022-12-17T16:10:16.287Z,27.70
2022-12-17T16:12:43.384Z,28.57
2022-12-17T16:15:11.820Z,27.73
2022-12-17T16:17:40.118Z,29.50
2022-12-17T16:20:08.010Z,27.40
2022-12-17T16:22:34.992Z,27.30
2022-12-17T16:25:01.988Z,27.83
2022-12-17T16:27:28.899Z,26.30
2022-12-17T16:29:55.755Z,24.23
2022-12-17T16:32:22.630Z,23.30
2022-12-17T16:34:50.772Z,23.47
2022-12-17T16:37:17.740Z,22.27
2022-12-17T16:39:44.662Z,23.97
2022-12-17T16:42:11.661Z,24.63
2022-12-17T16:44:38.585Z,23.80
2022-12-17T16:47:05.839Z,22.47
2022-12-17T16:49:33.248Z,24.30
2022-12-17T16:52:03.414Z,25.57
2022-12-17T16:54:32.283Z,26.13
2022-12-17T16:57:00.247Z,25.13
2022-12-17T16:59:27.477Z,23.30
2022-12-17T17:01:54.470Z,24.33
2022-12-17T17:04:23.077Z,25.70
2022-12-17T17:06:52.451Z,24.47
2022-12-17T17:09:21.827Z,22.63
2022-12-17T17:11:51.792Z,23.83
2022-12-17T17:14:19.655Z,23.30
2022-12-17T17:16:46.548Z,24.47
2022-12-17T17:19:13.415Z,25.33
2022-12-17T17:21:41.723Z,23.23
2022-12-17T17:24:15.401Z,24.40
2022-12-17T17:26:47.502Z,24.37
2022-12-17T17:29:14.396Z,26.93
2022-12-17T17:34:28.314Z,26.43
2022-12-17T17:36:55.259Z,26.43
2022-12-17T17:39:22.183Z,25.73
2022-12-17T17:41:50.477Z,25.73
2022-12-17T17:44:17.415Z,25.83
2022-12-17T17:46:44.494Z,27.10
2022-12-17T17:49:12.105Z,25.90
2022-12-17T17:54:28.786Z,25.20
2022-12-17T17:56:57.143Z,25.07
2022-12-17T17:59:30.891Z,26.27
2022-12-17T18:02:00.233Z,23.97
2022-12-17T18:04:27.314Z,25.87
2022-12-17T18:07:24.616Z,24.00
2022-12-17T18:09:41.288Z,25.53
2022-12-17T18:12:27.933Z,24.47
2022-12-17T18:15:13.803Z,24.90
2022-12-17T18:17:41.829Z,25.33
2022-12-17T18:20:10.233Z,25.60
2022-12-17T18:22:37.252Z,25.53
2022-12-17T18:25:04.884Z,26.53
2022-12-17T18:27:33.327Z,24.33
2022-12-17T18:30:00.689Z,25.20
2022-12-17T18:32:27.715Z,25.40
2022-12-17T18:34:54.732Z,25.47
2022-12-17T18:37:21.755Z,24.17
2022-12-17T18:39:48.881Z,27.73
2022-12-17T18:42:34.487Z,28.33
2022-12-17T18:45:02.836Z,24.00
2022-12-17T18:47:29.923Z,24.87
2022-12-17T18:49:57.388Z,26.97
2022-12-17T18:52:24.487Z,27.87
2022-12-17T18:54:51.402Z,26.27
2022-12-17T18:57:18.532Z,25.53
2022-12-17T18:59:45.440Z,24.50
2022-12-17T19:02:14.575Z,26.53
2022-12-17T19:04:41.857Z,27.90
2022-12-17T19:07:09.193Z,30.53
2022-12-17T19:09:36.521Z,27.80
2022-12-17T19:12:04.207Z,27.80
2022-12-17T19:14:31.103Z,28.40
2022-12-17T19:16:58.270Z,26.60
2022-12-17T19:19:26.988Z,25.20
2022-12-17T19:21:55.189Z,25.43
2022-12-17T19:24:22.886Z,24.37
2022-12-17T19:26:50.216Z,23.20
2022-12-17T19:29:18.894Z,22.93
2022-12-17T19:31:46.345Z,23.43
2022-12-17T19:34:14.914Z,24.97
2022-12-17T19:36:44.431Z,23.03
2022-12-17T19:39:13.198Z,24.83
2022-12-17T19:41:40.420Z,26.10
2022-12-17T19:44:08.777Z,24.07
2022-12-17T19:46:36.439Z,24.17
2022-12-17T19:49:04.569Z,25.37
2022-12-17T19:51:32.286Z,28.47
2022-12-17T19:54:07.740Z,27.30
2022-12-17T19:56:35.641Z,26.23
2022-12-17T19:59:06.799Z,27.33
2022-12-17T20:01:36.373Z,26.73
2022-12-17T20:04:03.959Z,26.70
2022-12-17T20:06:33.825Z,25.90
2022-12-17T20:09:03.708Z,26.13
2022-12-17T20:11:33.308Z,25.80
2022-12-17T20:14:01.987Z,26.10
2022-12-17T20:16:30.801Z,25.63
2022-12-17T20:18:59.411Z,27.10
2022-12-17T20:21:26.590Z,28.07
2022-12-17T20:23:53.514Z,25.97
2022-12-17T20:26:21.988Z,25.07
2022-12-17T20:28:48.836Z,27.50
2022-12-17T20:31:16.533Z,26.40
2022-12-17T20:33:43.824Z,24.60
2022-12-17T20:36:14.293Z,23.90
2022-12-17T20:38:42.498Z,23.53
2022-12-17T20:41:11.063Z,24.10
2022-12-17T20:43:39.864Z,23.47
2022-12-17T20:46:09.528Z,24.60
2022-12-17T20:48:37.131Z,24.83
2022-12-17T20:51:06.438Z,25.10
2022-12-17T20:53:34.830Z,24.57
2022-12-17T20:56:02.372Z,26.20
2022-12-17T20:58:29.301Z,22.70
2022-12-17T21:01:09.954Z,23.27
2022-12-17T21:03:37.743Z,24.00
2022-12-17T21:06:07.042Z,24.50
2022-12-17T21:08:34.288Z,24.63
2022-12-17T21:11:01.490Z,24.77
2022-12-17T21:13:31.270Z,24.40
2022-12-17T21:15:59.286Z,26.10
2022-12-17T21:18:29.831Z,26.10
2022-12-17T21:20:58.346Z,26.47
2022-12-17T21:23:25.463Z,25.70
2022-12-17T21:26:00.625Z,25.63
2022-12-17T21:28:28.990Z,25.43
2022-12-17T21:30:56.025Z,23.37
2022-12-17T21:33:23.150Z,22.37
2022-12-17T21:35:58.101Z,22.10
2022-12-17T21:38:24.986Z,21.63
2022-12-17T21:40:51.839Z,21.53
2022-12-17T21:43:18.873Z,21.23
2022-12-17T21:45:45.956Z,20.73
2022-12-17T21:48:15.328Z,22.10
2022-12-17T21:50:43.249Z,22.20
2022-12-17T21:53:12.599Z,21.63
2022-12-17T21:55:39.515Z,23.40
2022-12-17T21:58:06.655Z,23.27
2022-12-17T22:00:33.825Z,22.57
2022-12-17T22:03:01.296Z,22.30
2022-12-17T22:05:28.840Z,23.43
2022-12-17T22:07:55.813Z,23.23
2022-12-17T22:10:47.570Z,23.17
2022-12-17T22:13:30.063Z,23.90
2022-12-17T22:15:57.043Z,24.23
2022-12-17T22:18:25.081Z,22.83
2022-12-17T22:20:58.910Z,23.97
2022-12-17T22:23:25.959Z,23.40
2022-12-17T22:25:54.514Z,23.70
2022-12-17T22:28:21.519Z,24.70
2022-12-17T22:31:08.349Z,24.33
2022-12-17T22:33:47.522Z,23.43
2022-12-17T22:38:32.202Z,34.50
2022-12-17T22:43:32.193Z,26.30
2022-12-17T22:44:36.031Z,24.40
2022-12-17T22:45:10.510Z,24.63
2022-12-17T22:47:38.229Z,23.93
2022-12-17T22:50:06.087Z,23.70
2022-12-17T22:52:33.438Z,22.17
2022-12-17T22:55:00.590Z,21.70
2022-12-17T22:57:37.617Z,23.30
2022-12-17T23:00:13.694Z,23.30
2022-12-17T23:02:40.668Z,23.33
2022-12-17T23:05:08.290Z,23.33
2022-12-17T23:07:35.247Z,24.20
2022-12-17T23:10:02.109Z,23.37
2022-12-17T23:12:48.867Z,24.33
2022-12-17T23:15:18.446Z,21.77
2022-12-17T23:17:45.329Z,22.27
2022-12-17T23:20:13.115Z,21.43
2022-12-17T23:22:40.090Z,22.90
2022-12-17T23:25:08.015Z,22.10
2022-12-17T23:27:36.322Z,22.60
2022-12-17T23:30:09.611Z,21.30
2022-12-17T23:32:37.385Z,21.60
2022-12-17T23:35:05.055Z,20.10
2022-12-17T23:37:36.528Z,20.07
2022-12-17T23:40:07.938Z,19.30
2022-12-17T23:42:36.200Z,19.47
2022-12-17T23:45:03.969Z,18.77
2022-12-17T23:47:31.803Z,18.97
2022-12-17T23:49:58.670Z,19.70
2022-12-17T23:52:25.922Z,19.83
2022-12-17T23:54:52.797Z,20.13
2022-12-17T23:57:19.706Z,19.67
2022-12-17T23:59:47.948Z,19.70
